Time;durP1;ratioP1;P1;durP2;ratioP2;P2;SDS_P1;SDS_P2;PMS_P1;PMS_P2;Temp;Humidity;BMP_temperature;BMP_pressure;BME280_temperature;BME280_humidity;BME280_pressure;Samples;Min_cycle;Max_cycle;Signal;HPM_P1;HPM_P2
2021/01/28 00:00:00;;;;;;;7.40;6.80;;;3.20;99.90;;;;;;5069625;28;20691;-90
2021/01/28 00:02:26;;;;;;;8.23;7.30;;;3.20;99.90;;;;;;5070330;28;20637;-89
2021/01/28 00:04:53;;;;;;;7.70;7.10;;;3.20;99.90;;;;;;5063930;28;20661;-90
2021/01/28 00:07:19;;;;;;;8.47;7.77;;;3.30;99.90;;;;;;5069078;28;20633;-90
2021/01/28 00:09:45;;;;;;;10.60;7.43;;;3.30;99.90;;;;;;5067218;28;20718;-89
2021/01/28 00:12:12;;;;;;;7.07;6.50;;;3.40;99.90;;;;;;5065437;28;20613;-90
2021/01/28 00:14:39;;;;;;;8.00;7.30;;;3.50;99.90;;;;;;5066626;28;20570;-91
2021/01/28 00:17:05;;;;;;;7.63;7.00;;;3.30;99.90;;;;;;5065718;28;20644;-90
2021/01/28 00:19:31;;;;;;;8.83;8.00;;;3.30;99.90;;;;;;5061430;28;20684;-90
2021/01/28 00:21:59;;;;;;;12.40;11.10;;;3.40;99.90;;;;;;5050369;28;20629;-90
2021/01/28 00:24:26;;;;;;;8.87;7.93;;;3.40;99.90;;;;;;5067452;28;20644;-90
2021/01/28 00:26:52;;;;;;;12.00;8.73;;;3.40;99.90;;;;;;5062266;28;20634;-91
2021/01/28 00:29:18;;;;;;;8.50;7.53;;;3.50;99.90;;;;;;5066159;28;21104;-90
2021/01/28 00:31:46;;;;;;;7.10;6.43;;;3.50;99.90;;;;;;5066329;28;20625;-91
2021/01/28 00:34:12;;;;;;;6.90;6.30;;;3.50;99.90;;;;;;5065365;28;20629;-90
2021/01/28 00:36:39;;;;;;;7.13;6.50;;;3.40;99.90;;;;;;5064587;28;20638;-90
2021/01/28 00:39:06;;;;;;;7.03;6.37;;;3.40;99.90;;;;;;5071210;28;20617;-90
2021/01/28 00:41:32;;;;;;;7.97;7.30;;;3.40;99.90;;;;;;5060960;28;21255;-90
2021/01/28 00:43:59;;;;;;;6.90;6.30;;;3.50;99.90;;;;;;5065712;28;20736;-89
2021/01/28 00:46:25;;;;;;;7.27;6.57;;;3.50;99.90;;;;;;5067193;28;20648;-90
2021/01/28 00:48:53;;;;;;;7.10;6.50;;;3.40;99.90;;;;;;5069951;28;20993;-90
2021/01/28 00:51:19;;;;;;;7.07;6.47;;;3.30;99.90;;;;;;5077524;28;20652;-89
2021/01/28 00:53:45;;;;;;;6.77;6.17;;;3.40;99.90;;;;;;5084322;28;20637;-90
2021/01/28 00:56:12;;;;;;;7.03;6.40;;;3.30;99.90;;;;;;5077551;28;20674;-90
2021/01/28 00:58:38;;;;;;;7.23;6.53;;;3.30;99.90;;;;;;5078261;28;20658;-90
2021/01/28 01:01:06;;;;;;;8.83;8.00;;;3.20;99.90;;;;;;5079030;28;20749;-91
2021/01/28 01:03:32;;;;;;;7.10;6.53;;;3.30;99.90;;;;;;5081952;28;20651;-90
2021/01/28 01:06:01;;;;;;;6.33;5.80;;;3.30;99.90;;;;;;5064666;28;20621;-90
2021/01/28 01:08:28;;;;;;;7.07;6.47;;;3.40;99.90;;;;;;5084938;28;20640;-90
2021/01/28 01:10:57;;;;;;;6.80;6.20;;;3.40;99.90;;;;;;5085322;28;20657;-91
2021/01/28 01:13:26;;;;;;;5.97;5.47;;;3.40;99.90;;;;;;5075900;28;20633;-90
2021/01/28 01:15:52;;;;;;;6.80;6.10;;;3.50;99.90;;;;;;5079578;28;20712;-90
2021/01/28 01:18:22;;;;;;;8.87;8.07;;;3.50;99.90;;;;;;5079247;28;20626;-92
2021/01/28 01:20:49;;;;;;;7.27;6.67;;;3.50;99.90;;;;;;5082080;28;20687;-91
2021/01/28 01:23:24;;;;;;;6.30;5.80;;;3.50;99.90;;;;;;5075839;28;20648;-92
2021/01/28 01:25:52;;;;;;;7.67;6.97;;;3.50;99.90;;;;;;5079357;28;20638;-91
2021/01/28 01:28:20;;;;;;;6.60;6.00;;;3.50;99.90;;;;;;5073832;28;20613;-92
2021/01/28 01:30:46;;;;;;;8.13;6.70;;;3.50;99.90;;;;;;5084665;28;20652;-91
2021/01/28 01:33:14;;;;;;;5.93;5.43;;;3.50;99.90;;;;;;5079815;28;20624;-92
2021/01/28 01:35:43;;;;;;;6.03;5.53;;;3.40;99.90;;;;;;5076930;28;20617;-92
2021/01/28 01:38:11;;;;;;;6.50;5.90;;;3.50;99.90;;;;;;5077656;28;21102;-92
2021/01/28 01:40:40;;;;;;;5.87;5.37;;;3.40;99.90;;;;;;5076159;28;20684;-90
2021/01/28 01:43:08;;;;;;;5.43;5.00;;;3.40;99.90;;;;;;5074321;28;20647;-89
2021/01/28 01:45:39;;;;;;;6.40;5.90;;;3.50;99.90;;;;;;5076436;28;20636;-90
2021/01/28 01:48:08;;;;;;;6.23;5.73;;;3.60;99.90;;;;;;5074366;28;20625;-89
2021/01/28 01:50:47;;;;;;;8.30;7.50;;;3.60;99.90;;;;;;5074404;28;20651;-89
2021/01/28 01:53:20;;;;;;;7.60;7.00;;;3.80;99.90;;;;;;5069581;28;20625;-89
2021/01/28 01:55:53;;;;;;;7.80;7.10;;;3.70;99.90;;;;;;5067488;28;20640;-89
2021/01/28 01:58:45;;;;;;;6.50;6.00;;;3.70;99.90;;;;;;5058680;28;20669;-90
2021/01/28 02:01:13;;;;;;;6.07;5.47;;;3.60;99.90;;;;;;5052610;28;20779;-90
2021/01/28 02:03:41;;;;;;;5.43;4.93;;;3.50;99.90;;;;;;5076022;28;20619;-91
2021/01/28 02:06:25;;;;;;;5.80;5.30;;;3.50;99.90;;;;;;5072786;28;20632;-90
2021/01/28 02:08:54;;;;;;;5.40;5.00;;;3.50;99.90;;;;;;5071932;28;20636;-90
2021/01/28 02:11:26;;;;;;;5.67;5.23;;;3.40;99.90;;;;;;5071240;28;21199;-89
2021/01/28 02:13:56;;;;;;;5.50;5.10;;;3.50;99.90;;;;;;5072018;28;20682;-90
2021/01/28 02:16:26;;;;;;;5.93;5.43;;;3.60;99.90;;;;;;5072110;28;20630;-89
2021/01/28 02:18:56;;;;;;;4.97;4.53;;;3.60;99.90;;;;;;5069045;28;21189;-90
2021/01/28 02:21:31;;;;;;;4.53;4.17;;;3.50;99.90;;;;;;5070385;28;21061;-90
2021/01/28 02:24:29;;;;;;;4.47;4.17;;;3.50;99.90;;;;;;5070161;28;20658;-90
2021/01/28 02:26:57;;;;;;;5.60;5.20;;;3.60;99.90;;;;;;5067024;28;20698;-89
2021/01/28 02:29:24;;;;;;;4.77;4.37;;;3.60;99.90;;;;;;5069234;28;20613;-89
2021/01/28 02:31:54;;;;;;;6.37;5.67;;;3.60;99.90;;;;;;5074090;28;20638;-91
2021/01/28 02:34:22;;;;;;;4.70;4.30;;;3.70;99.90;;;;;;5074499;28;20648;-90
2021/01/28 02:36:53;;;;;;;4.30;4.00;;;3.80;99.90;;;;;;5087788;28;20629;-90
2021/01/28 02:39:24;;;;;;;4.87;4.47;;;3.70;99.90;;;;;;5090902;28;20657;-91
2021/01/28 02:42:00;;;;;;;4.70;4.30;;;3.70;99.90;;;;;;5089282;28;20648;-91
2021/01/28 02:44:29;;;;;;;4.67;4.27;;;3.80;99.90;;;;;;5088037;28;20635;-89
2021/01/28 02:46:56;;;;;;;5.10;4.70;;;3.80;99.90;;;;;;5086336;28;20648;-92
2021/01/28 02:49:22;;;;;;;6.50;6.00;;;3.90;99.90;;;;;;5087559;28;20637;-92
2021/01/28 02:51:49;;;;;;;5.27;4.87;;;4.00;99.90;;;;;;5092261;28;20637;-92
2021/01/28 02:54:16;;;;;;;5.23;4.83;;;4.10;99.90;;;;;;5066006;28;20628;-91
2021/01/28 02:56:42;;;;;;;4.27;3.87;;;4.00;99.90;;;;;;5083113;28;20602;-92
2021/01/28 02:59:09;;;;;;;4.40;4.00;;;3.80;99.90;;;;;;5066693;28;20628;-90
2021/01/28 03:01:38;;;;;;;3.57;3.37;;;3.90;99.90;;;;;;5065128;28;20633;-91
2021/01/28 03:04:08;;;;;;;4.43;4.13;;;3.80;99.90;;;;;;5067595;28;20666;-90
2021/01/28 03:06:36;;;;;;;4.70;4.30;;;3.80;99.90;;;;;;5068400;28;20633;-89
2021/01/28 03:09:05;;;;;;;5.07;4.67;;;3.80;99.90;;;;;;5066782;28;20612;-91
2021/01/28 03:11:33;;;;;;;5.13;4.70;;;4.00;99.90;;;;;;5064156;28;20710;-90
2021/01/28 03:14:00;;;;;;;4.53;4.17;;;4.00;99.90;;;;;;5054625;28;20954;-88
2021/01/28 03:16:30;;;;;;;5.00;4.60;;;3.90;99.90;;;;;;5068571;28;20617;-88
2021/01/28 03:18:56;;;;;;;4.23;3.93;;;3.90;99.90;;;;;;5063186;28;20624;-90
2021/01/28 03:21:23;;;;;;;4.63;4.10;;;3.90;99.90;;;;;;5064733;28;20679;-91
2021/01/28 03:23:50;;;;;;;4.80;4.30;;;3.80;99.90;;;;;;5068996;28;20643;-91
2021/01/28 03:26:16;;;;;;;3.90;3.60;;;3.90;99.90;;;;;;5069388;28;20666;-90
2021/01/28 03:28:43;;;;;;;3.87;3.57;;;3.80;99.90;;;;;;5068556;28;20979;-90
2021/01/28 03:31:10;;;;;;;3.67;3.37;;;3.80;99.90;;;;;;5068221;28;21004;-90
2021/01/28 03:33:38;;;;;;;4.83;4.40;;;3.90;99.90;;;;;;5053133;28;20640;-89
2021/01/28 03:36:05;;;;;;;3.67;3.30;;;3.90;99.90;;;;;;5067237;28;21203;-91
2021/01/28 03:38:31;;;;;;;4.10;3.77;;;4.00;99.90;;;;;;5066865;28;20649;-90
2021/01/28 03:40:59;;;;;;;3.60;3.30;;;4.00;99.90;;;;;;5068238;28;20672;-91
2021/01/28 03:43:26;;;;;;;4.70;4.30;;;4.10;99.90;;;;;;5063294;28;20659;-90
2021/01/28 03:45:55;;;;;;;4.10;3.80;;;4.10;99.90;;;;;;5063455;28;20618;-90
2021/01/28 03:48:22;;;;;;;4.17;3.87;;;4.10;99.90;;;;;;5069660;28;20625;-90
2021/01/28 03:50:49;;;;;;;4.00;3.67;;;4.10;99.90;;;;;;5066997;28;20649;-90
2021/01/28 03:53:16;;;;;;;4.30;3.93;;;4.20;99.90;;;;;;5049955;28;20769;-90
2021/01/28 03:55:43;;;;;;;4.13;3.83;;;4.10;99.90;;;;;;5065154;28;20680;-90
2021/01/28 03:58:09;;;;;;;4.03;3.73;;;4.00;99.90;;;;;;5072006;28;21013;-90
2021/01/28 04:00:37;;;;;;;4.07;3.77;;;4.00;99.90;;;;;;5061197;28;20763;-91
2021/01/28 04:03:05;;;;;;;4.50;4.10;;;4.00;99.90;;;;;;5064604;28;21100;-89
2021/01/28 04:05:31;;;;;;;3.80;3.50;;;4.10;99.90;;;;;;5052802;28;20625;-92
2021/01/28 04:07:59;;;;;;;3.93;3.50;;;4.10;99.90;;;;;;5061183;28;21187;-91
2021/01/28 04:10:27;;;;;;;3.93;3.57;;;3.90;99.90;;;;;;5064700;28;20660;-92
2021/01/28 04:12:54;;;;;;;3.83;3.43;;;4.00;99.90;;;;;;5056054;28;20621;-92
2021/01/28 04:15:21;;;;;;;3.63;3.33;;;4.20;99.90;;;;;;5068724;28;20642;-92
2021/01/28 04:17:49;;;;;;;4.70;4.30;;;4.20;99.90;;;;;;5073216;28;21201;-91
2021/01/28 04:20:18;;;;;;;5.93;4.57;;;4.20;99.90;;;;;;5075053;28;20684;-92
2021/01/28 04:22:45;;;;;;;4.70;4.30;;;4.30;99.90;;;;;;5069858;28;20617;-91
2021/01/28 04:25:16;;;;;;;4.17;3.87;;;4.20;99.90;;;;;;5053049;28;20642;-90
2021/01/28 04:27:42;;;;;;;4.10;3.80;;;4.10;99.90;;;;;;5068330;28;20621;-91
2021/01/28 04:30:11;;;;;;;4.00;3.70;;;4.10;99.90;;;;;;5071802;28;21097;-92
2021/01/28 04:32:38;;;;;;;5.00;4.50;;;4.10;99.90;;;;;;5070982;28;20640;-92
2021/01/28 04:35:05;;;;;;;4.87;4.47;;;4.00;99.90;;;;;;5069319;28;20640;-92
2021/01/28 04:37:33;;;;;;;4.70;4.17;;;4.10;99.90;;;;;;5055514;28;20643;-92
2021/01/28 04:40:00;;;;;;;4.60;4.20;;;4.00;99.90;;;;;;5070859;28;20688;-91
2021/01/28 04:42:41;;;;;;;4.17;3.77;;;4.00;99.90;;;;;;5050708;28;20660;-92
2021/01/28 04:45:09;;;;;;;4.00;3.60;;;4.00;99.90;;;;;;5048129;28;20635;-91
2021/01/28 04:47:36;;;;;;;4.00;3.33;;;4.00;99.90;;;;;;5068334;28;20671;-91
2021/01/28 04:50:05;;;;;;;3.80;3.40;;;4.00;99.90;;;;;;5071564;28;20791;-91
2021/01/28 04:52:37;;;;;;;3.80;3.50;;;4.00;99.90;;;;;;5070865;28;20582;-92
2021/01/28 04:55:07;;;;;;;5.20;3.80;;;3.90;99.90;;;;;;5071044;28;20636;-91
2021/01/28 04:57:35;;;;;;;4.80;4.40;;;4.00;99.90;;;;;;5070392;28;21102;-92
2021/01/28 05:00:04;;;;;;;4.33;3.97;;;4.10;99.90;;;;;;5066464;28;20673;-92
2021/01/28 05:02:30;;;;;;;5.00;4.60;;;4.10;99.90;;;;;;5083716;28;20601;-92
2021/01/28 05:04:58;;;;;;;5.10;4.60;;;4.00;99.90;;;;;;5085720;28;20632;-91
2021/01/28 05:07:27;;;;;;;5.60;5.10;;;3.90;99.90;;;;;;5073029;28;20637;-91
2021/01/28 05:10:10;;;;;;;5.73;5.17;;;3.90;99.90;;;;;;5089114;28;20638;-92
2021/01/28 05:12:38;;;;;;;4.30;4.00;;;3.90;99.90;;;;;;5087874;28;20884;-91
2021/01/28 05:15:14;;;;;;;5.83;3.70;;;3.80;99.90;;;;;;5087689;28;20621;-92
2021/01/28 05:17:42;;;;;;;5.60;5.10;;;3.80;99.90;;;;;;5089693;28;20616;-92
2021/01/28 05:20:15;;;;;;;5.50;5.00;;;3.90;99.90;;;;;;5093363;28;20718;-92
2021/01/28 05:22:44;;;;;;;5.37;4.87;;;3.80;99.90;;;;;;5094635;28;20617;-92
2021/01/28 05:25:19;;;;;;;6.00;4.90;;;3.80;99.90;;;;;;5090811;28;20645;-92
2021/01/28 05:27:46;;;;;;;5.77;5.27;;;4.00;99.90;;;;;;5087191;28;20604;-92
2021/01/28 05:30:17;;;;;;;6.77;6.17;;;4.00;99.90;;;;;;5090937;28;20662;-94
2021/01/28 05:32:46;;;;;;;7.03;6.53;;;4.00;99.90;;;;;;5074048;28;20629;-92
2021/01/28 05:35:28;;;;;;;6.40;5.90;;;3.90;99.90;;;;;;5094383;28;20617;-92
2021/01/28 05:38:08;;;;;;;7.43;6.40;;;3.90;99.90;;;;;;5074232;28;20614;-92
2021/01/28 05:40:35;;;;;;;8.87;8.07;;;4.00;99.90;;;;;;5089986;28;20664;-92
2021/01/28 05:43:20;;;;;;;8.30;7.40;;;4.00;99.90;;;;;;5091476;28;20712;-92
2021/01/28 05:45:46;;;;;;;9.30;7.73;;;4.00;99.90;;;;;;5091792;28;20694;-90
2021/01/28 05:48:29;;;;;;;10.03;8.40;;;4.00;99.90;;;;;;5091798;28;20629;-90
2021/01/28 05:51:16;;;;;;;8.97;8.00;;;4.00;99.90;;;;;;5070418;28;20747;-91
2021/01/28 05:53:57;;;;;;;9.10;8.13;;;3.90;99.90;;;;;;5083018;28;20625;-91
2021/01/28 05:56:24;;;;;;;8.57;7.77;;;3.80;99.90;;;;;;5087797;28;20609;-91
2021/01/28 05:58:57;;;;;;;8.37;7.53;;;3.80;99.90;;;;;;5087706;28;20643;-92
2021/01/28 06:01:36;;;;;;;8.03;7.27;;;3.80;99.90;;;;;;5087071;28;20703;-91
2021/01/28 06:04:29;;;;;;;10.33;7.00;;;3.70;99.90;;;;;;5091248;28;20616;-91
2021/01/28 06:07:26;;;;;;;7.07;6.37;;;3.80;99.90;;;;;;5089536;28;20613;-91
2021/01/28 06:10:16;;;;;;;7.30;6.70;;;3.70;99.90;;;;;;5091470;28;20653;-91
2021/01/28 06:13:09;;;;;;;8.17;7.57;;;3.60;99.90;;;;;;5091230;28;20612;-91
2021/01/28 06:15:49;;;;;;;7.20;6.50;;;3.60;99.90;;;;;;5077795;28;20974;-90
2021/01/28 06:18:40;;;;;;;7.43;6.83;;;3.80;99.90;;;;;;5094719;28;20613;-91
2021/01/28 06:21:34;;;;;;;7.40;6.80;;;3.80;99.90;;;;;;5091668;28;20672;-91
2021/01/28 06:24:28;;;;;;;7.70;7.00;;;3.70;99.90;;;;;;5080810;28;20636;-92
2021/01/28 06:27:09;;;;;;;9.27;8.57;;;3.90;99.90;;;;;;5090079;28;20616;-91
2021/01/28 06:30:00;;;;;;;8.60;7.90;;;4.00;99.90;;;;;;5061307;28;20653;-90
2021/01/28 06:33:00;;;;;;;8.33;7.63;;;4.10;99.90;;;;;;5074085;28;20682;-92
2021/01/28 06:35:57;;;;;;;7.50;6.90;;;4.00;99.90;;;;;;5067979;28;21147;-92
2021/01/28 06:38:44;;;;;;;7.90;7.20;;;4.10;99.90;;;;;;5073987;28;20729;-90
2021/01/28 06:41:15;;;;;;;8.30;7.30;;;4.20;99.90;;;;;;5071253;28;20699;-90
2021/01/28 06:43:53;;;;;;;8.27;7.50;;;4.30;99.90;;;;;;5069934;28;20641;-91
2021/01/28 06:46:39;;;;;;;7.73;7.13;;;4.20;99.90;;;;;;5069609;28;20663;-92
2021/01/28 06:49:20;;;;;;;9.17;8.37;;;4.10;99.90;;;;;;5058329;28;20711;-91
2021/01/28 06:51:59;;;;;;;8.40;7.70;;;4.20;99.90;;;;;;5073322;28;20656;-91
2021/01/28 06:54:35;;;;;;;8.33;7.63;;;4.20;99.90;;;;;;5074764;28;20620;-90
2021/01/28 06:57:12;;;;;;;11.70;10.60;;;4.20;99.90;;;;;;5071324;28;20668;-91
2021/01/28 06:59:50;;;;;;;12.57;11.50;;;4.30;99.90;;;;;;5070708;28;20652;-91
2021/01/28 07:02:27;;;;;;;10.23;8.17;;;4.20;99.90;;;;;;5065746;28;20586;-91
2021/01/28 07:05:10;;;;;;;9.00;7.90;;;4.20;99.90;;;;;;5066821;28;20644;-90
2021/01/28 07:07:47;;;;;;;10.83;9.83;;;4.10;99.90;;;;;;5069412;28;20635;-91
2021/01/28 07:10:19;;;;;;;9.40;8.50;;;4.20;99.90;;;;;;5069719;28;20663;-91
2021/01/28 07:12:50;;;;;;;9.40;8.50;;;4.20;99.90;;;;;;5070348;28;20657;-91
2021/01/28 07:15:17;;;;;;;10.10;9.07;;;4.20;99.90;;;;;;5071397;28;21168;-89
2021/01/28 07:17:49;;;;;;;10.73;9.73;;;4.20;99.90;;;;;;5067647;28;20649;-92
2021/01/28 07:20:30;;;;;;;13.23;10.80;;;4.20;99.90;;;;;;5066345;28;20844;-91
2021/01/28 07:23:14;;;;;;;12.77;11.47;;;4.10;99.90;;;;;;5068375;28;21145;-91
2021/01/28 07:25:48;;;;;;;14.33;13.10;;;3.80;99.90;;;;;;5070362;28;21201;-92
2021/01/28 07:28:29;;;;;;;13.97;12.60;;;3.90;99.90;;;;;;5068003;28;20605;-92
2021/01/28 07:31:41;;;;;;;13.47;12.10;;;4.00;99.90;;;;;;5069172;28;20661;-92
2021/01/28 07:34:15;;;;;;;18.37;16.60;;;3.90;99.90;;;;;;5061486;28;21179;-91
2021/01/28 07:36:46;;;;;;;23.93;16.20;;;3.70;99.90;;;;;;5054131;28;20628;-91
2021/01/28 07:39:38;;;;;;;18.53;16.53;;;3.80;99.90;;;;;;5071580;28;21177;-92
2021/01/28 07:42:27;;;;;;;24.07;18.17;;;3.90;99.90;;;;;;5067025;28;20663;-92
2021/01/28 07:44:55;;;;;;;23.40;17.63;;;3.70;99.90;;;;;;5065761;28;21008;-92
2021/01/28 07:47:49;;;;;;;33.23;20.27;;;3.80;99.90;;;;;;5066189;28;21227;-92
2021/01/28 07:50:34;;;;;;;19.43;17.40;;;3.80;99.90;;;;;;5065065;28;20649;-92
2021/01/28 07:53:29;;;;;;;19.40;17.40;;;3.80;99.90;;;;;;5068717;28;20647;-92
2021/01/28 07:55:56;;;;;;;19.77;17.97;;;3.80;99.90;;;;;;5068582;28;20648;-92
2021/01/28 07:58:27;;;;;;;17.43;15.53;;;3.80;99.90;;;;;;5070223;28;20611;-92
2021/01/28 08:00:56;;;;;;;16.97;15.17;;;4.00;99.90;;;;;;5070441;28;21823;-92
2021/01/28 08:03:33;;;;;;;16.87;15.27;;;4.00;99.90;;;;;;5070813;28;20630;-92
2021/01/28 08:06:06;;;;;;;18.07;15.60;;;4.10;99.90;;;;;;5067389;28;20630;-91
2021/01/28 08:08:33;;;;;;;17.07;15.47;;;4.10;99.90;;;;;;5070947;28;20736;-92
2021/01/28 08:11:21;;;;;;;17.67;16.03;;;4.10;99.90;;;;;;5070267;28;20676;-91
2021/01/28 08:13:54;;;;;;;19.67;16.63;;;4.10;99.90;;;;;;5054183;28;21300;-92
2021/01/28 08:16:23;;;;;;;25.47;17.83;;;4.00;99.90;;;;;;5068113;28;20999;-92
2021/01/28 08:19:05;;;;;;;32.87;19.37;;;4.00;99.90;;;;;;5071302;28;21022;-92
2021/01/28 08:21:32;;;;;;;20.57;18.10;;;4.10;99.90;;;;;;5055513;28;20714;-92
2021/01/28 08:24:16;;;;;;;18.10;16.20;;;4.10;99.90;;;;;;5058395;28;20702;-91
2021/01/28 08:26:43;;;;;;;16.40;14.80;;;4.10;99.90;;;;;;5068557;28;20648;-93
2021/01/28 08:29:15;;;;;;;16.60;14.30;;;4.20;99.90;;;;;;5068560;28;20633;-91
2021/01/28 08:31:43;;;;;;;16.13;14.57;;;4.20;99.90;;;;;;5071835;28;21171;-91
2021/01/28 08:34:16;;;;;;;15.03;13.50;;;4.20;99.90;;;;;;5070594;28;20621;-94
2021/01/28 08:36:47;;;;;;;15.57;13.70;;;4.20;99.90;;;;;;5065638;28;20640;-92
2021/01/28 08:39:16;;;;;;;16.67;15.10;;;4.10;99.90;;;;;;5068242;28;21052;-93
2021/01/28 08:41:44;;;;;;;16.60;14.90;;;4.10;99.90;;;;;;5067229;28;21199;-90
2021/01/28 08:44:14;;;;;;;14.60;12.47;;;4.20;99.90;;;;;;5066113;28;20676;-92
2021/01/28 08:46:42;;;;;;;19.17;16.20;;;4.20;99.90;;;;;;5064768;28;21031;-90
2021/01/28 08:49:14;;;;;;;14.77;13.33;;;4.20;99.90;;;;;;5063951;28;20636;-90
2021/01/28 08:51:43;;;;;;;17.07;15.30;;;4.20;99.90;;;;;;5067711;28;20640;-90
2021/01/28 08:54:18;;;;;;;16.17;14.57;;;4.20;99.90;;;;;;5051681;28;21233;-90
2021/01/28 08:56:47;;;;;;;15.77;13.00;;;4.20;99.90;;;;;;5051411;28;21202;-89
2021/01/28 08:59:16;;;;;;;15.50;14.07;;;4.30;99.90;;;;;;5062901;28;21308;-90
2021/01/28 09:01:47;;;;;;;14.13;12.70;;;4.30;99.90;;;;;;5066491;28;20663;-89
2021/01/28 09:04:16;;;;;;;16.00;14.20;;;4.40;99.90;;;;;;5065775;28;20636;-90
2021/01/28 09:06:45;;;;;;;14.73;13.23;;;4.50;99.90;;;;;;5068846;28;20629;-93
2021/01/28 09:09:19;;;;;;;14.17;12.07;;;4.40;99.90;;;;;;5053208;28;20640;-90
2021/01/28 09:11:47;;;;;;;17.47;15.77;;;4.40;99.90;;;;;;5065903;28;20692;-93
2021/01/28 09:14:28;;;;;;;15.63;14.00;;;4.40;99.90;;;;;;5072502;28;20655;-94
2021/01/28 09:16:58;;;;;;;17.00;12.90;;;4.40;99.90;;;;;;5068150;28;21434;-93
2021/01/28 09:19:25;;;;;;;16.70;13.90;;;4.50;99.90;;;;;;5068433;28;20636;-90
2021/01/28 09:21:56;;;;;;;15.83;14.33;;;4.50;99.90;;;;;;5068349;28;20665;-92
2021/01/28 09:24:28;;;;;;;19.50;14.27;;;4.50;99.90;;;;;;5067631;28;20636;-89
2021/01/28 09:27:24;;;;;;;16.33;14.33;;;4.50;99.90;;;;;;5065767;28;20623;-89
2021/01/28 09:29:53;;;;;;;15.80;13.30;;;4.50;99.90;;;;;;5055692;28;20669;-89
2021/01/28 09:32:32;;;;;;;23.10;15.27;;;4.50;99.90;;;;;;5065167;28;20629;-89
2021/01/28 09:35:12;;;;;;;22.17;13.60;;;4.50;99.90;;;;;;5066548;28;21020;-91
2021/01/28 09:37:43;;;;;;;14.33;12.93;;;4.60;99.90;;;;;;5069948;28;20644;-90
2021/01/28 09:40:25;;;;;;;15.27;13.67;;;4.50;99.90;;;;;;5068070;28;20730;-91
2021/01/28 09:43:23;;;;;;;12.97;11.43;;;4.60;99.90;;;;;;5066504;28;20684;-92
2021/01/28 09:46:09;;;;;;;15.27;13.10;;;4.60;99.90;;;;;;5068752;28;21075;-90
2021/01/28 09:48:37;;;;;;;17.03;13.60;;;4.60;99.90;;;;;;5061846;28;20641;-90
2021/01/28 09:51:04;;;;;;;17.50;13.00;;;4.70;99.90;;;;;;5067792;28;20640;-91
2021/01/28 09:53:31;;;;;;;16.40;13.80;;;4.70;99.90;;;;;;5067329;28;20622;-91
2021/01/28 09:55:57;;;;;;;30.33;15.07;;;4.70;99.90;;;;;;5070734;28;20621;-91
2021/01/28 09:58:24;;;;;;;17.40;13.27;;;4.70;99.90;;;;;;5066650;28;20711;-90
2021/01/28 10:00:53;;;;;;;23.33;14.03;;;4.70;99.90;;;;;;5055779;28;20672;-90
2021/01/28 10:03:21;;;;;;;14.53;13.00;;;4.70;99.90;;;;;;5070268;28;20621;-90
2021/01/28 10:05:47;;;;;;;15.10;11.77;;;4.70;99.90;;;;;;5069764;28;20644;-91
2021/01/28 10:08:15;;;;;;;14.60;12.93;;;4.80;99.90;;;;;;5068258;28;20652;-90
2021/01/28 10:10:42;;;;;;;15.13;13.63;;;4.60;99.90;;;;;;5066931;28;20657;-89
2021/01/28 10:13:11;;;;;;;20.43;14.97;;;4.70;99.90;;;;;;5069227;28;20636;-90
2021/01/28 10:15:39;;;;;;;15.00;13.40;;;4.80;99.90;;;;;;5069691;28;21223;-91
2021/01/28 10:18:05;;;;;;;20.63;18.47;;;4.80;99.90;;;;;;5070362;28;20632;-91
2021/01/28 10:20:33;;;;;;;15.70;14.00;;;4.70;99.90;;;;;;5064851;28;20672;-90
2021/01/28 10:23:02;;;;;;;16.40;14.70;;;4.80;99.90;;;;;;5067857;28;20628;-91
2021/01/28 10:25:28;;;;;;;13.20;11.87;;;4.90;99.90;;;;;;5070469;28;20640;-91
2021/01/28 10:27:55;;;;;;;14.60;13.20;;;4.90;99.90;;;;;;5066534;28;21175;-90
2021/01/28 10:30:24;;;;;;;12.30;11.10;;;4.80;99.90;;;;;;5070525;28;20644;-90
2021/01/28 10:32:57;;;;;;;13.83;10.90;;;5.00;99.90;;;;;;5070137;28;20640;-91
2021/01/28 10:35:27;;;;;;;11.83;10.63;;;4.90;99.90;;;;;;5070617;28;20612;-90
2021/01/28 10:37:56;;;;;;;10.53;9.50;;;4.90;99.90;;;;;;5069497;28;20632;-90
2021/01/28 10:40:23;;;;;;;8.47;7.77;;;5.00;99.90;;;;;;5068463;28;21070;-90
2021/01/28 10:42:55;;;;;;;6.90;6.30;;;5.00;99.90;;;;;;5066374;28;20778;-89
2021/01/28 10:45:23;;;;;;;7.40;6.73;;;5.10;99.90;;;;;;5067809;28;20711;-89
2021/01/28 10:47:51;;;;;;;7.80;6.53;;;5.40;99.90;;;;;;5069510;28;20632;-90
2021/01/28 10:50:21;;;;;;;6.13;5.40;;;5.60;99.90;;;;;;5068309;28;20714;-91
2021/01/28 10:52:48;;;;;;;4.90;4.40;;;6.00;99.90;;;;;;5066236;28;20625;-90
2021/01/28 10:55:15;;;;;;;4.90;4.40;;;6.10;99.90;;;;;;5066129;28;20640;-89
2021/01/28 10:57:41;;;;;;;5.57;3.73;;;6.10;99.90;;;;;;5067596;28;20616;-90
2021/01/28 11:00:09;;;;;;;2.90;2.70;;;6.10;99.90;;;;;;5070328;28;20743;-89
2021/01/28 11:02:37;;;;;;;3.00;2.70;;;6.20;99.90;;;;;;5068430;28;20641;-90
2021/01/28 11:05:05;;;;;;;3.03;2.67;;;6.30;99.90;;;;;;5069300;28;20637;-89
2021/01/28 11:07:32;;;;;;;2.67;2.13;;;6.40;99.90;;;;;;5051102;28;20659;-91
2021/01/28 11:09:58;;;;;;;1.90;1.60;;;6.50;99.90;;;;;;5069008;28;20636;-90
2021/01/28 11:12:25;;;;;;;2.87;1.50;;;6.70;99.90;;;;;;5068130;28;20625;-91
2021/01/28 11:14:51;;;;;;;2.53;1.43;;;6.80;99.90;;;;;;5068079;28;20609;-91
2021/01/28 11:17:17;;;;;;;4.00;1.60;;;6.80;99.90;;;;;;5068345;28;20640;-90
2021/01/28 11:19:45;;;;;;;2.63;1.30;;;6.90;99.90;;;;;;5067239;28;20649;-90
2021/01/28 11:22:11;;;;;;;2.10;1.27;;;7.00;99.90;;;;;;5067621;28;20665;-90
2021/01/28 11:24:38;;;;;;;1.00;0.90;;;7.10;99.90;;;;;;5068507;28;21279;-90
2021/01/28 11:27:04;;;;;;;1.03;0.97;;;7.00;99.90;;;;;;5065899;28;21050;-91
2021/01/28 11:29:31;;;;;;;2.77;1.27;;;7.00;99.90;;;;;;5066580;28;20660;-90
2021/01/28 11:31:57;;;;;;;4.53;1.40;;;7.10;99.90;;;;;;5069852;28;20621;-90
2021/01/28 11:34:25;;;;;;;0.97;0.80;;;7.00;99.90;;;;;;5068042;28;20678;-90
2021/01/28 11:36:52;;;;;;;1.17;1.00;;;7.00;99.90;;;;;;5069434;28;20643;-91
2021/01/28 11:39:18;;;;;;;1.27;1.00;;;7.10;99.90;;;;;;5066028;28;20701;-90
2021/01/28 11:41:46;;;;;;;2.57;1.63;;;7.30;99.90;;;;;;5067215;28;21294;-92
2021/01/28 11:44:12;;;;;;;0.90;0.87;;;7.40;99.90;;;;;;5068250;28;20613;-91
2021/01/28 11:46:38;;;;;;;1.37;1.20;;;7.50;99.90;;;;;;5070313;28;20755;-91
2021/01/28 11:49:05;;;;;;;1.00;0.97;;;7.60;99.90;;;;;;5068379;28;20622;-91
2021/01/28 11:51:33;;;;;;;1.23;1.07;;;7.70;99.90;;;;;;5068214;28;21203;-91
2021/01/28 11:53:59;;;;;;;1.10;0.90;;;7.70;99.90;;;;;;5067589;28;20629;-91
2021/01/28 11:56:26;;;;;;;1.23;1.10;;;7.80;99.90;;;;;;5070997;28;20628;-91
2021/01/28 11:58:53;;;;;;;2.27;0.90;;;7.80;99.90;;;;;;5051350;28;20633;-90
2021/01/28 12:01:20;;;;;;;1.00;0.83;;;7.90;99.90;;;;;;5068404;28;20696;-90
2021/01/28 12:03:48;;;;;;;1.27;1.07;;;7.80;99.90;;;;;;5068276;28;20621;-90
2021/01/28 12:06:16;;;;;;;1.50;0.83;;;7.90;99.90;;;;;;5065808;28;20683;-92
2021/01/28 12:08:42;;;;;;;2.30;1.07;;;7.90;99.90;;;;;;5071832;28;20636;-92
2021/01/28 12:11:08;;;;;;;0.80;0.80;;;8.00;99.90;;;;;;5066408;28;20664;-92
2021/01/28 12:13:35;;;;;;;4.17;1.50;;;8.10;99.90;;;;;;5070305;28;20642;-92
2021/01/28 12:16:03;;;;;;;1.20;1.10;;;8.30;99.90;;;;;;5071890;28;20670;-92
2021/01/28 12:18:29;;;;;;;1.50;1.07;;;8.30;99.90;;;;;;5068613;28;21205;-91
2021/01/28 12:20:56;;;;;;;1.90;0.90;;;8.40;99.90;;;;;;5069392;28;20680;-92
2021/01/28 12:23:23;;;;;;;1.00;0.90;;;8.50;99.90;;;;;;5072788;28;20636;-92
2021/01/28 12:25:50;;;;;;;0.90;0.90;;;8.50;99.90;;;;;;5070081;28;20889;-91
2021/01/28 12:28:16;;;;;;;5.60;1.33;;;8.60;99.90;;;;;;5068847;28;20625;-92
2021/01/28 12:30:43;;;;;;;1.00;0.80;;;8.60;99.90;;;;;;5065533;28;20669;-92
2021/01/28 12:33:10;;;;;;;2.97;1.43;;;8.70;99.90;;;;;;5066103;28;20640;-92
2021/01/28 12:35:36;;;;;;;1.27;1.17;;;8.90;99.90;;;;;;5067334;28;20659;-91
2021/01/28 12:38:03;;;;;;;1.00;0.90;;;8.90;99.90;;;;;;5069393;28;20644;-93
2021/01/28 12:40:30;;;;;;;3.50;1.80;;;9.00;99.90;;;;;;5067509;28;20898;-90
2021/01/28 12:42:56;;;;;;;1.30;1.10;;;9.20;99.90;;;;;;5067120;28;20652;-92
2021/01/28 12:45:23;;;;;;;1.00;0.80;;;9.20;99.90;;;;;;5050296;28;20624;-92
2021/01/28 12:47:49;;;;;;;2.30;1.50;;;9.20;99.90;;;;;;5050940;28;20644;-92
2021/01/28 12:50:16;;;;;;;1.40;1.30;;;9.20;99.90;;;;;;5067266;28;20637;-92
2021/01/28 12:52:43;;;;;;;2.33;1.20;;;9.30;99.90;;;;;;5067284;28;20625;-90
2021/01/28 12:55:10;;;;;;;1.20;1.10;;;9.30;99.90;;;;;;5070636;28;20690;-91
2021/01/28 12:57:37;;;;;;;0.77;0.77;;;9.20;99.90;;;;;;5066979;28;20602;-91
2021/01/28 13:00:06;;;;;;;1.33;1.17;;;9.30;99.90;;;;;;5064052;28;20645;-91
2021/01/28 13:02:32;;;;;;;1.33;1.23;;;9.30;99.90;;;;;;5060158;28;21003;-90
2021/01/28 13:04:58;;;;;;;1.83;1.30;;;9.30;99.90;;;;;;5069022;28;20641;-91
2021/01/28 13:07:26;;;;;;;1.53;1.43;;;9.40;99.90;;;;;;5068079;28;20682;-91
2021/01/28 13:09:52;;;;;;;0.93;0.90;;;9.60;99.90;;;;;;5050337;28;20638;-93